Time;durP1;ratioP1;P1;durP2;ratioP2;P2;SDS_P1;SDS_P2;PMS_P1;PMS_P2;Temp;Humidity;BMP_temperature;BMP_pressure;BME280_temperature;BME280_humidity;BME280_pressure;Samples;Min_cycle;Max_cycle;Signal;HPM_P1;HPM_P2
2022/12/06 00:00:55;;;;;;;8.98;7.03;;;;;;;14.42;47.00;93223.44;4994526;28;20156;-85
2022/12/06 00:03:20;;;;;;;9.85;7.57;;;;;;;14.38;47.01;93226.38;5009543;28;20057;-84
2022/12/06 00:05:46;;;;;;;10.48;7.13;;;;;;;14.38;47.20;93225.63;4994819;28;20056;-85
2022/12/06 00:08:11;;;;;;;11.30;7.03;;;;;;;14.40;46.72;93223.16;5010029;28;20037;-85
2022/12/06 00:10:37;;;;;;;13.05;7.63;;;;;;;14.38;47.04;93229.09;5010830;28;20057;-85
2022/12/06 00:13:03;;;;;;;8.65;6.75;;;;;;;14.39;46.93;93227.13;5010017;28;20030;-85
2022/12/06 00:15:29;;;;;;;9.80;7.30;;;;;;;14.38;46.71;93223.66;4994057;28;20049;-84
2022/12/06 00:17:54;;;;;;;12.73;7.40;;;;;;;14.39;47.31;93232.56;5009985;28;20120;-85
2022/12/06 00:20:19;;;;;;;8.38;6.05;;;;;;;14.37;46.97;93227.59;4988948;28;20456;-85
2022/12/06 00:22:45;;;;;;;9.52;7.07;;;;;;;14.42;46.88;93215.28;5010652;28;20037;-85
2022/12/06 00:25:10;;;;;;;8.38;6.60;;;;;;;14.37;47.03;93227.59;4992566;28;20042;-85
2022/12/06 00:27:36;;;;;;;9.25;6.47;;;;;;;14.40;47.19;93225.88;4994074;28;20042;-85
2022/12/06 00:30:01;;;;;;;10.75;7.15;;;;;;;14.40;46.86;93213.06;5010646;28;20052;-85
2022/12/06 00:32:27;;;;;;;10.10;7.20;;;;;;;14.38;46.93;93214.75;5009230;28;20057;-84
2022/12/06 00:34:52;;;;;;;8.77;6.97;;;;;;;14.37;47.22;93221.41;5010369;28;20061;-85
2022/12/06 00:37:17;;;;;;;10.90;6.90;;;;;;;14.39;46.87;93221.69;5008256;28;20436;-85
2022/12/06 00:39:43;;;;;;;9.65;6.82;;;;;;;14.40;47.10;93212.28;5010144;28;20042;-85
2022/12/06 00:42:08;;;;;;;8.65;6.75;;;;;;;14.38;46.87;93212.78;5009091;28;20037;-85
2022/12/06 00:44:34;;;;;;;8.23;6.55;;;;;;;14.35;47.02;93213.00;5012680;28;20049;-85
2022/12/06 00:46:59;;;;;;;9.02;7.03;;;;;;;14.36;47.34;93220.69;5010059;28;20045;-85
2022/12/06 00:49:24;;;;;;;9.48;6.70;;;;;;;14.36;47.09;93211.78;5008698;28;20036;-85
2022/12/06 00:51:50;;;;;;;8.88;6.72;;;;;;;14.35;47.26;93215.72;5010555;28;20423;-86
2022/12/06 00:54:15;;;;;;;8.80;6.32;;;;;;;14.35;46.87;93211.03;5008666;28;20045;-85
2022/12/06 00:56:41;;;;;;;10.15;6.93;;;;;;;14.34;46.90;93217.69;5010169;28;20099;-85
2022/12/06 00:59:06;;;;;;;8.10;6.38;;;;;;;14.33;47.02;93216.22;5009144;28;20048;-85
2022/12/06 01:01:32;;;;;;;8.27;6.45;;;;;;;14.38;46.85;93220.94;5008673;28;20049;-85
2022/12/06 01:03:59;;;;;;;9.07;6.22;;;;;;;14.37;46.98;93210.53;4978552;28;20105;-85
2022/12/06 01:06:26;;;;;;;8.20;6.55;;;;;;;14.35;46.86;93221.91;4973677;28;20439;-84
2022/12/06 01:08:54;;;;;;;9.45;6.35;;;;;;;14.36;47.16;93212.53;4974065;28;20501;-84
2022/12/06 01:11:19;;;;;;;7.85;6.28;;;;;;;14.36;47.08;93215.25;4957366;28;20559;-85
2022/12/06 01:13:45;;;;;;;9.23;7.03;;;;;;;14.38;46.65;93209.31;4976286;28;20046;-85
2022/12/06 01:16:12;;;;;;;9.40;6.05;;;;;;;14.35;46.91;93216.47;5008840;28;20099;-85
2022/12/06 01:18:37;;;;;;;8.77;6.03;;;;;;;14.36;46.89;93219.94;5009275;28;20116;-85
2022/12/06 01:21:08;;;;;;;7.32;5.97;;;;;;;14.35;47.14;93215.72;5009368;28;20132;-86
2022/12/06 01:23:34;;;;;;;8.02;5.93;;;;;;;14.33;46.94;93215.47;5008998;28;20202;-85
2022/12/06 01:25:59;;;;;;;8.07;5.85;;;;;;;14.36;47.01;93207.09;5008910;28;20040;-85
2022/12/06 01:28:25;;;;;;;9.23;6.22;;;;;;;14.34;47.24;93208.78;5009017;28;20416;-85
2022/12/06 01:30:50;;;;;;;8.43;6.45;;;;;;;14.36;47.05;93207.09;5009074;28;20037;-85
2022/12/06 01:33:15;;;;;;;7.72;5.88;;;;;;;14.35;47.38;93204.84;4989924;28;20412;-85
2022/12/06 01:35:41;;;;;;;7.30;5.88;;;;;;;14.34;46.88;93206.81;4987109;28;20041;-85
2022/12/06 01:38:07;;;;;;;8.93;6.28;;;;;;;14.35;46.98;93224.63;5008202;28;20115;-85
2022/12/06 01:40:39;;;;;;;7.60;5.95;;;;;;;14.35;46.88;93204.84;4989556;28;20046;-85
2022/12/06 01:43:05;;;;;;;8.52;6.50;;;;;;;14.36;46.73;93203.63;5005801;28;20067;-85
2022/12/06 01:45:30;;;;;;;8.88;6.18;;;;;;;14.35;47.03;93202.88;5008733;28;20060;-85
2022/12/06 01:47:56;;;;;;;8.70;6.30;;;;;;;14.33;47.16;93215.47;4993257;28;20065;-85
2022/12/06 01:50:26;;;;;;;7.60;5.60;;;;;;;14.35;46.85;93208.31;4991748;28;20408;-85
2022/12/06 01:52:59;;;;;;;7.68;6.00;;;;;;;14.36;47.16;93198.19;5009351;28;20128;-85
2022/12/06 01:55:26;;;;;;;7.13;5.78;;;;;;;14.33;47.02;93199.91;5012068;28;20069;-85
2022/12/06 01:57:53;;;;;;;8.25;5.60;;;;;;;14.34;47.03;93204.09;4997389;28;20108;-85
2022/12/06 02:00:18;;;;;;;6.85;5.20;;;;;;;14.35;46.93;93202.13;4979717;28;20540;-85
2022/12/06 02:02:44;;;;;;;8.30;5.88;;;;;;;14.35;46.74;93205.59;5012296;28;20171;-85
2022/12/06 02:05:09;;;;;;;8.93;6.22;;;;;;;14.33;46.97;93201.88;5011642;28;20046;-85
2022/12/06 02:07:34;;;;;;;7.65;5.80;;;;;;;14.33;47.03;93207.31;4997039;28;20041;-84
2022/12/06 02:10:00;;;;;;;8.15;5.90;;;;;;;14.38;47.13;93199.19;4996305;28;20025;-85
2022/12/06 02:12:25;;;;;;;11.13;5.93;;;;;;;14.36;46.68;93201.63;4996298;28;20045;-85
2022/12/06 02:14:51;;;;;;;7.90;5.30;;;;;;;14.36;46.93;93193.47;5012768;28;20087;-85
2022/12/06 02:17:48;;;;;;;7.18;5.97;;;;;;;14.34;46.81;93195.94;4994388;28;20125;-85
2022/12/06 02:20:40;;;;;;;9.02;5.55;;;;;;;14.36;46.91;93201.63;5011223;28;20033;-85
2022/12/06 02:23:21;;;;;;;;;;;;;;;14.39;46.71;93200.66;5012340;28;20432;-85
2022/12/06 02:26:14;;;;;;;6.70;5.13;;;;;;;14.34;46.93;93190.50;5028354;28;19925;-85
2022/12/06 02:28:45;;;;;;;6.97;5.43;;;;;;;14.34;46.65;93190.50;5012633;28;20400;-85
2022/12/06 02:31:15;;;;;;;8.30;5.82;;;;;;;14.32;46.82;93197.66;5029248;28;20129;-85
2022/12/06 02:33:48;;;;;;;7.47;5.38;;;;;;;14.34;46.85;93190.50;5013034;28;20095;-86
2022/12/06 02:36:36;;;;;;;7.38;5.45;;;;;;;14.33;46.88;93191.75;5011817;28;20041;-84
2022/12/06 02:39:18;;;;;;;7.55;5.40;;;;;;;14.32;46.84;93194.94;5010024;28;20077;-85
2022/12/06 02:41:48;;;;;;;6.55;5.28;;;;;;;14.33;46.90;93191.00;5012285;28;20503;-85
2022/12/06 02:44:24;;;;;;;5.57;4.63;;;;;;;14.31;46.64;93188.75;4995443;28;20152;-85
2022/12/06 02:46:49;;;;;;;9.20;5.32;;;;;;;14.31;46.85;93188.75;4995969;28;20140;-85
2022/12/06 02:49:15;;;;;;;6.70;5.18;;;;;;;14.31;46.77;93191.47;5011061;28;20022;-85
2022/12/06 02:51:40;;;;;;;7.28;5.18;;;;;;;14.30;46.94;93195.44;5012729;28;20034;-85
2022/12/06 02:54:07;;;;;;;7.10;4.95;;;;;;;14.31;46.97;93188.03;5011383;28;20033;-85
2022/12/06 02:56:33;;;;;;;8.30;5.00;;;;;;;14.33;46.75;93183.59;5011992;28;20061;-85
2022/12/06 02:58:58;;;;;;;6.10;4.68;;;;;;;14.30;46.51;93184.56;5012363;28;20543;-85
2022/12/06 03:01:26;;;;;;;5.93;4.78;;;;;;;14.31;46.73;93188.03;4993307;28;20128;-85
2022/12/06 03:03:57;;;;;;;8.52;5.68;;;;;;;14.29;46.88;93179.63;5012653;28;20041;-85
2022/12/06 03:06:35;;;;;;;7.20;5.57;;;;;;;14.31;46.87;93182.59;5015437;28;20056;-85
2022/12/06 03:09:03;;;;;;;6.75;4.90;;;;;;;14.30;46.81;93181.09;5029560;28;20033;-85
2022/12/06 03:11:39;;;;;;;6.15;4.60;;;;;;;14.29;46.64;93174.91;5027713;28;20041;-85
2022/12/06 03:14:13;;;;;;;6.18;4.70;;;;;;;14.32;46.75;93182.09;5012744;28;20041;-85
2022/12/06 03:16:42;;;;;;;6.43;5.20;;;;;;;14.33;46.86;93182.84;4995401;28;20473;-85
2022/12/06 03:19:15;;;;;;;7.80;5.07;;;;;;;14.31;46.88;93172.44;5011511;28;20140;-85
2022/12/06 03:21:45;;;;;;;5.75;4.57;;;;;;;14.32;46.63;93175.91;4995415;28;20115;-85
2022/12/06 03:24:12;;;;;;;5.55;5.00;;;;;;;14.30;46.92;93175.66;5011113;28;20411;-85
2022/12/06 03:26:38;;;;;;;5.80;4.38;;;;;;;14.30;46.72;93170.22;5010980;28;20471;-85
2022/12/06 03:29:04;;;;;;;7.72;5.00;;;;;;;14.33;46.82;93169.25;4994793;28;20041;-85
2022/12/06 03:31:30;;;;;;;7.25;4.82;;;;;;;14.34;46.85;93173.44;4994392;28;20033;-85
2022/12/06 03:34:04;;;;;;;5.82;4.60;;;;;;;14.30;46.84;93172.94;5011655;28;20033;-85
2022/12/06 03:36:30;;;;;;;8.15;4.55;;;;;;;14.32;46.83;93173.19;5010263;28;20045;-84
2022/12/06 03:39:02;;;;;;;5.10;4.47;;;;;;;14.32;46.93;93176.66;5011638;28;20168;-85
2022/12/06 03:41:31;;;;;;;6.68;4.95;;;;;;;14.32;46.69;93173.19;4994250;28;20203;-85
2022/12/06 03:43:57;;;;;;;5.75;4.68;;;;;;;14.32;46.66;93178.63;4994373;28;20038;-84
2022/12/06 03:46:26;;;;;;;6.55;4.35;;;;;;;14.30;46.67;93178.38;5002927;28;20049;-85
2022/12/06 03:48:54;;;;;;;4.88;4.38;;;;;;;14.30;46.57;93179.13;4995154;28;20555;-85
2022/12/06 03:51:25;;;;;;;5.38;4.40;;;;;;;14.29;46.76;93166.75;4994431;28;20041;-85
2022/12/06 03:53:53;;;;;;;6.85;4.70;;;;;;;14.29;46.74;93171.47;5011484;28;20132;-85
2022/12/06 03:56:19;;;;;;;6.20;4.85;;;;;;;14.31;46.70;93163.56;5009777;28;20049;-85
2022/12/06 03:58:45;;;;;;;5.97;4.70;;;;;;;14.28;46.56;93159.84;5011320;28;20128;-85
2022/12/06 04:01:10;;;;;;;5.88;4.20;;;;;;;14.29;46.69;93161.31;5009630;28;20488;-85
2022/12/06 04:03:36;;;;;;;5.25;4.35;;;;;;;14.26;46.74;93159.59;4991785;28;20064;-85
2022/12/06 04:06:03;;;;;;;4.72;3.97;;;;;;;14.33;46.81;93171.97;4999240;28;20100;-86
2022/12/06 04:08:28;;;;;;;7.47;5.07;;;;;;;14.32;46.36;93162.31;4991314;28;20449;-85
2022/12/06 04:10:54;;;;;;;5.55;3.90;;;;;;;14.27;46.48;93160.34;5009138;28;20041;-85
2022/12/06 04:13:19;;;;;;;4.80;3.88;;;;;;;14.30;46.26;93151.19;4990934;28;20042;-85
2022/12/06 04:15:45;;;;;;;5.18;4.40;;;;;;;14.29;46.63;93160.59;4980081;28;20030;-85
2022/12/06 04:18:13;;;;;;;5.88;3.90;;;;;;;14.26;46.66;93154.16;4997613;28;20109;-85
2022/12/06 04:23:45;;;;;;;5.28;4.15;;;;;;;14.28;46.55;93157.13;4993350;28;20196;-85
2022/12/06 04:26:11;;;;;;;5.78;4.32;;;;;;;14.32;46.52;93156.88;5004558;28;20038;-85
2022/12/06 04:39:33;;;;;;;6.57;4.43;;;;;;;14.30;46.55;93148.47;4995239;28;20558;-85
2022/12/06 04:44:42;;;;;;;4.65;3.97;;;;;;;14.28;46.47;93154.41;5012381;28;20467;-86
2022/12/06 04:47:07;;;;;;;4.78;3.97;;;;;;;14.25;46.49;93151.94;5007886;28;20512;-85
2022/12/06 04:49:33;;;;;;;5.60;4.13;;;;;;;14.25;46.31;93147.25;5008256;28;20103;-85
2022/12/06 04:51:58;;;;;;;5.40;3.72;;;;;;;14.26;46.50;93158.84;4992405;28;20048;-85
2022/12/06 04:54:24;;;;;;;14.55;4.63;;;;;;;14.29;46.91;93152.44;4991355;28;20500;-85
2022/12/06 04:56:50;;;;;;;5.32;4.00;;;;;;;14.26;46.64;93156.13;4992399;28;20137;-85
2022/12/06 04:59:16;;;;;;;7.55;3.95;;;;;;;14.28;46.56;93154.41;4992002;28;20037;-85
2022/12/06 05:01:41;;;;;;;5.53;3.95;;;;;;;14.30;46.39;93157.38;5006494;28;20045;-85
2022/12/06 05:04:07;;;;;;;5.05;4.03;;;;;;;14.29;46.54;93157.88;5009728;28;20041;-85
2022/12/06 05:06:32;;;;;;;4.45;3.60;;;;;;;14.29;46.61;93155.16;5008813;28;20041;-85
2022/12/06 05:08:58;;;;;;;6.03;3.83;;;;;;;14.25;46.27;93155.41;4993577;28;20037;-85
2022/12/06 05:11:23;;;;;;;7.00;3.70;;;;;;;14.27;46.39;93152.94;5009357;28;20346;-85
2022/12/06 05:13:48;;;;;;;5.80;4.10;;;;;;;14.25;46.67;93154.66;5008961;28;20404;-85
2022/12/06 05:16:14;;;;;;;7.38;3.92;;;;;;;14.30;46.51;93148.47;4992019;28;20468;-85
2022/12/06 05:18:39;;;;;;;6.43;3.97;;;;;;;14.23;46.74;93157.84;4993732;28;20416;-85
2022/12/06 05:21:12;;;;;;;4.80;3.95;;;;;;;14.30;46.69;93143.78;5008401;28;20049;-85
2022/12/06 05:23:37;;;;;;;5.72;3.30;;;;;;;14.19;44.87;93159.31;5010076;28;20526;-85
2022/12/06 05:26:07;;;;;;;7.57;3.75;;;;;;;14.07;43.67;93153.13;5008174;28;20072;-86
2022/12/06 05:28:32;;;;;;;6.60;3.70;;;;;;;14.06;43.82;93148.91;5008588;28;20121;-85
2022/12/06 05:30:58;;;;;;;4.22;3.25;;;;;;;14.06;43.66;93146.94;5006548;28;20083;-85
2022/12/06 05:33:23;;;;;;;7.32;3.80;;;;;;;14.08;43.74;93143.69;4973787;28;20385;-85
2022/12/06 05:35:49;;;;;;;7.13;3.55;;;;;;;14.11;44.01;93141.97;4990402;28;20108;-85
2022/12/06 05:38:14;;;;;;;5.65;2.90;;;;;;;14.15;45.39;93154.13;4969967;28;20042;-84
2022/12/06 05:40:40;;;;;;;65.20;48.05;;;;;;;14.21;45.67;93143.25;4991021;28;20049;-85
2022/12/06 05:43:06;;;;;;;27.70;18.15;;;;;;;14.27;46.59;93150.22;5021749;28;20123;-84
2022/12/06 05:45:31;;;;;;;14.93;6.30;;;;;;;14.33;47.13;93150.22;4990113;28;20030;-87
2022/12/06 05:47:57;;;;;;;88.18;41.20;;;;;;;14.33;46.54;93150.94;5008672;28;20432;-85
2022/12/06 05:50:23;;;;;;;46.25;18.75;;;;;;;14.33;46.15;93155.66;4987893;28;20054;-83
2022/12/06 05:52:56;;;;;;;11.13;5.22;;;;;;;14.32;45.92;93148.72;4996802;28;20048;-84
2022/12/06 05:55:22;;;;;;;10.15;7.18;;;;;;;14.31;46.45;93150.69;4990858;28;20053;-85
2022/12/06 05:57:49;;;;;;;16.55;10.38;;;;;;;14.32;45.67;93156.88;5006701;28;20046;-85
2022/12/06 06:00:15;;;;;;;13.02;7.68;;;;;;;14.33;45.90;93155.66;4976844;28;20052;-83
2022/12/06 06:02:45;;;;;;;11.77;6.18;;;;;;;14.23;44.35;93152.41;4985508;28;20052;-83
2022/12/06 06:05:12;;;;;;;26.27;8.20;;;;;;;14.21;44.46;93151.41;4981512;28;20186;-84
2022/12/06 06:07:38;;;;;;;30.60;13.23;;;;;;;14.20;44.80;93145.25;4993367;28;20283;-84
2022/12/06 06:10:05;;;;;;;44.03;17.45;;;;;;;14.19;44.71;93151.91;5011308;28;20041;-86
2022/12/06 06:12:32;;;;;;;48.75;22.67;;;;;;;14.21;45.11;93152.16;5013571;28;20042;-86
2022/12/06 06:15:04;;;;;;;49.25;23.88;;;;;;;14.23;45.88;93144.25;4982291;28;20400;-85
2022/12/06 06:17:29;;;;;;;;;;;;;;;14.31;44.89;93144.50;4977826;28;20045;-85
2022/12/06 06:19:56;;;;;;;54.60;24.48;;;;;;;14.29;45.12;93139.56;4999695;28;19927;-85
2022/12/06 06:22:23;;;;;;;60.15;27.17;;;;;;;14.31;45.97;93139.06;5007436;28;20037;-84
2022/12/06 06:24:50;;;;;;;63.70;29.25;;;;;;;14.29;45.44;93130.69;5012378;28;20610;-85
2022/12/06 06:27:16;;;;;;;65.00;29.52;;;;;;;14.27;45.52;93133.16;4999397;28;20125;-84
2022/12/06 06:29:42;;;;;;;109.57;31.45;;;;;;;14.28;45.67;93142.81;5015319;28;20049;-86
2022/12/06 06:32:08;;;;;;;85.10;29.73;;;;;;;14.31;45.58;93133.63;5017408;28;20125;-86
2022/12/06 06:34:34;;;;;;;69.38;27.65;;;;;;;14.29;45.85;93150.44;4992855;28;20127;-85
2022/12/06 06:36:59;;;;;;;72.65;30.98;;;;;;;14.30;45.85;93141.06;5008239;28;20104;-85
2022/12/06 06:39:25;;;;;;;76.15;31.45;;;;;;;14.29;45.51;93153.16;4984964;28;20382;-85
2022/12/06 06:41:50;;;;;;;74.70;29.77;;;;;;;14.29;45.59;93147.00;5006874;28;20656;-85
2022/12/06 06:44:16;;;;;;;88.65;39.67;;;;;;;14.24;45.20;93147.72;5008750;28;20119;-86
2022/12/06 06:46:41;;;;;;;86.47;36.67;;;;;;;14.26;45.11;93145.25;5006395;28;20047;-85
2022/12/06 06:49:07;;;;;;;83.35;37.95;;;;;;;14.23;45.23;93152.41;5006645;28;20041;-85
2022/12/06 06:51:33;;;;;;;86.13;37.20;;;;;;;14.24;45.30;93162.06;5008059;28;20432;-85
2022/12/06 06:53:58;;;;;;;91.35;37.25;;;;;;;14.30;45.54;93160.09;5010228;28;20403;-85
2022/12/06 06:56:24;;;;;;;101.70;39.95;;;;;;;14.31;45.63;93149.94;4989570;28;20079;-84
2022/12/06 06:58:50;;;;;;;85.18;36.58;;;;;;;14.30;45.30;93168.25;5010002;28;20037;-85
2022/12/06 07:01:17;;;;;;;101.32;39.88;;;;;;;14.27;45.65;93168.50;5012380;28;20112;-85
2022/12/06 07:03:43;;;;;;;86.63;35.90;;;;;;;14.33;46.10;93161.81;5012009;28;20033;-84
2022/12/06 07:06:09;;;;;;;73.55;32.88;;;;;;;14.40;46.02;93163.34;5001139;28;20038;-83
2022/12/06 07:08:34;;;;;;;71.35;33.53;;;;;;;14.44;45.85;93171.28;5013671;28;20271;-84
2022/12/06 07:11:01;;;;;;;71.60;30.15;;;;;;;14.44;45.71;93169.31;5012592;28;20084;-83
2022/12/06 07:13:27;;;;;;;73.57;30.38;;;;;;;14.50;45.72;93163.91;4996857;28;20042;-85
2022/12/06 07:15:52;;;;;;;65.75;30.17;;;;;;;14.50;45.40;93166.63;4994482;28;20041;-82
2022/12/06 07:18:18;;;;;;;78.25;29.85;;;;;;;14.55;45.99;93168.59;5014960;28;20585;-84
2022/12/06 07:20:44;;;;;;;59.13;25.52;;;;;;;14.53;45.20;93165.63;4991155;28;20042;-84
2022/12/06 07:23:09;;;;;;;58.05;25.45;;;;;;;14.52;45.44;93162.16;4988665;28;20037;-84
2022/12/06 07:25:36;;;;;;;56.58;26.05;;;;;;;14.49;45.61;93168.59;5028008;28;20088;-83
2022/12/06 07:28:01;;;;;;;68.28;28.80;;;;;;;14.49;45.40;93165.13;4984648;28;20033;-85
2022/12/06 07:30:27;;;;;;;46.95;23.58;;;;;;;14.45;45.44;93164.63;5010420;28;20139;-84
2022/12/06 07:32:52;;;;;;;61.50;30.73;;;;;;;14.45;45.42;93161.91;4990063;28;20073;-82
2022/12/06 07:35:18;;;;;;;70.40;31.23;;;;;;;14.44;45.72;93160.41;4970573;28;20042;-85
2022/12/06 07:37:44;;;;;;;58.03;29.05;;;;;;;14.42;45.50;93163.63;5013085;28;20096;-83
2022/12/06 07:40:10;;;;;;;72.22;29.70;;;;;;;14.43;45.67;93161.66;5005642;28;20041;-83
2022/12/06 07:45:20;;;;;;;84.68;34.13;;;;;;;14.38;45.79;93169.25;5007025;28;20120;-85
2022/12/06 07:47:45;;;;;;;68.50;33.30;;;;;;;14.44;45.87;93176.72;5006642;28;20411;-83
2022/12/06 07:50:13;;;;;;;79.05;38.10;;;;;;;14.41;45.64;93178.44;4988100;28;20053;-84
2022/12/06 07:52:38;;;;;;;91.57;41.08;;;;;;;14.39;45.76;93170.75;5005533;28;20459;-84
2022/12/06 07:55:04;;;;;;;69.25;33.28;;;;;;;14.31;43.72;93177.88;5000567;28;20129;-84
2022/12/06 07:57:31;;;;;;;78.43;35.60;;;;;;;14.28;44.25;93170.72;4989715;28;20467;-84
2022/12/06 07:59:56;;;;;;;114.05;48.63;;;;;;;14.28;44.60;93170.00;5020071;28;20474;-83
2022/12/06 08:02:24;;;;;;;99.70;47.55;;;;;;;14.31;44.16;93177.88;5000667;28;20167;-86
2022/12/06 08:04:50;;;;;;;132.10;54.67;;;;;;;14.33;44.22;93177.41;5007140;28;20045;-84
2022/12/06 08:07:15;;;;;;;100.72;46.67;;;;;;;14.33;44.69;93172.72;4980609;28;20524;-84
2022/12/06 08:09:41;;;;;;;101.07;47.97;;;;;;;14.32;44.52;93173.94;5009794;28;20037;-84
2022/12/06 08:12:07;;;;;;;99.47;46.53;;;;;;;14.31;45.10;93177.88;5010530;28;20045;-85
2022/12/06 08:14:33;;;;;;;90.88;39.25;;;;;;;14.32;45.50;93181.34;4996832;28;20049;-85
2022/12/06 08:16:58;;;;;;;148.30;59.05;;;;;;;14.33;45.62;93178.16;4999376;28;20167;-86
2022/12/06 08:19:24;;;;;;;105.72;48.97;;;;;;;14.39;44.72;93178.16;5020575;28;20074;-83
2022/12/06 08:21:50;;;;;;;112.47;50.67;;;;;;;14.42;45.13;93181.91;5008131;28;20061;-83
2022/12/06 08:24:15;;;;;;;137.35;63.75;;;;;;;14.42;45.18;93181.91;4995029;28;20121;-86
2022/12/06 08:26:41;;;;;;;135.15;63.90;;;;;;;14.44;45.35;93172.03;4987530;28;20045;-83
2022/12/06 08:29:07;;;;;;;126.47;59.17;;;;;;;14.42;45.64;93173.75;4992947;28;20048;-86
2022/12/06 08:31:33;;;;;;;143.95;68.32;;;;;;;14.39;45.32;93161.84;5010108;28;20037;-83
2022/12/06 08:33:59;;;;;;;125.68;62.22;;;;;;;14.44;45.36;93182.91;4991694;28;20037;-82
2022/12/06 08:36:24;;;;;;;112.82;56.72;;;;;;;14.40;45.87;93171.50;4994214;28;20215;-86
2022/12/06 08:38:50;;;;;;;157.85;65.95;;;;;;;14.46;45.97;93169.56;4996304;28;20048;-83
2022/12/06 08:44:00;;;;;;;85.68;38.85;;;;;;;14.40;43.93;93180.44;4993467;28;20115;-87
2022/12/06 08:46:26;;;;;;;98.40;45.38;;;;;;;14.39;44.34;93176.19;5013828;28;20484;-85
2022/12/06 08:48:51;;;;;;;109.63;53.33;;;;;;;14.40;44.79;93175.00;4990063;28;20373;-84
2022/12/06 08:51:17;;;;;;;123.88;57.75;;;;;;;14.43;44.84;93175.25;5003655;28;20046;-86
2022/12/06 08:53:42;;;;;;;117.43;53.67;;;;;;;14.44;45.26;93176.72;5008614;28;20056;-84
2022/12/06 08:56:08;;;;;;;115.13;54.83;;;;;;;14.50;45.59;93188.38;5007280;28;20025;-84
2022/12/06 08:58:34;;;;;;;166.55;69.28;;;;;;;14.52;45.25;93180.44;4996703;28;20044;-84
2022/12/06 09:01:00;;;;;;;134.93;60.42;;;;;;;14.52;45.16;93183.16;4991174;28;20037;-87
2022/12/06 09:03:26;;;;;;;154.93;65.82;;;;;;;14.50;45.29;93185.66;5004209;28;20050;-86
2022/12/06 09:05:52;;;;;;;138.32;61.80;;;;;;;14.51;44.89;93189.84;5013864;28;20056;-86
2022/12/06 09:08:17;;;;;;;149.65;65.07;;;;;;;14.53;44.84;93192.81;5008981;28;20125;-86
2022/12/06 09:10:43;;;;;;;159.40;69.43;;;;;;;14.50;44.97;93196.53;5005008;28;20052;-84
2022/12/06 09:13:10;;;;;;;124.57;61.00;;;;;;;14.53;45.24;93195.53;4990832;28;20034;-85
2022/12/06 09:15:37;;;;;;;155.38;68.53;;;;;;;14.50;45.06;93194.56;5007115;28;20041;-87
2022/12/06 09:18:03;;;;;;;172.55;74.60;;;;;;;14.54;44.82;93197.75;4983576;28;20045;-85
2022/12/06 09:20:29;;;;;;;176.77;79.70;;;;;;;14.52;45.86;93197.50;4977951;28;20151;-85
2022/12/06 09:22:55;;;;;;;170.10;76.75;;;;;;;14.52;45.11;93194.03;4991088;28;20049;-84
2022/12/06 09:25:21;;;;;;;147.50;72.75;;;;;;;14.51;45.25;93206.16;5001690;28;20061;-84
2022/12/06 09:27:47;;;;;;;151.65;71.05;;;;;;;14.55;45.70;93191.09;4992411;28;20064;-86
2022/12/06 09:30:17;;;;;;;151.45;70.22;;;;;;;14.53;45.40;93188.13;4999133;28;20034;-85
2022/12/06 09:32:43;;;;;;;142.35;71.07;;;;;;;14.55;45.41;93203.94;4989862;28;20034;-84
2022/12/06 09:35:08;;;;;;;163.07;80.15;;;;;;;14.59;45.35;93204.47;5001265;28;20041;-85
2022/12/06 09:37:34;;;;;;;151.50;71.45;;;;;;;14.56;45.30;93198.03;4989785;28;20038;-85
2022/12/06 09:40:01;;;;;;;132.60;66.22;;;;;;;14.58;45.79;93201.00;4976245;28;20030;-86
2022/12/06 09:42:59;;;;;;;142.18;72.50;;;;;;;14.57;45.55;93194.06;4991861;28;20025;-84
2022/12/06 09:45:49;;;;;;;139.75;69.55;;;;;;;14.59;45.82;93191.59;5020428;28;20109;-84
2022/12/06 09:48:23;;;;;;;132.65;69.55;;;;;;;14.57;45.37;93193.31;4994524;28;20049;-84
2022/12/06 09:51:04;;;;;;;139.13;72.30;;;;;;;14.55;45.48;93187.63;5008160;28;20049;-84
2022/12/06 09:53:42;;;;;;;138.70;70.20;;;;;;;14.54;45.55;93186.88;5028993;28;20072;-84
2022/12/06 09:56:17;;;;;;;151.75;76.82;;;;;;;14.56;45.38;93178.25;5027248;28;20041;-85
2022/12/06 09:59:14;;;;;;;147.35;78.50;;;;;;;14.56;45.51;93178.97;5035124;28;20037;-84
2022/12/06 10:02:05;;;;;;;94.15;42.80;;;;;;;14.46;42.69;93177.72;5017346;28;20725;-85
2022/12/06 10:04:41;;;;;;;64.93;25.80;;;;;;;14.39;41.70;93176.19;5019531;28;20347;-86
2022/12/06 10:07:27;;;;;;;52.95;24.58;;;;;;;14.25;41.18;93162.81;5023061;28;20033;-84
2022/12/06 10:10:10;;;;;;;53.28;25.60;;;;;;;14.23;41.45;93168.72;5024068;28;20049;-86
2022/12/06 10:12:54;;;;;;;75.50;29.08;;;;;;;14.26;41.51;93169.72;5025078;28;20444;-86
2022/12/06 10:15:31;;;;;;;75.25;28.70;;;;;;;14.26;42.15;93167.00;5020059;28;20042;-84
2022/12/06 10:18:03;;;;;;;136.93;57.03;;;;;;;14.27;41.78;93152.94;5018342;28;20034;-85
2022/12/06 10:20:40;;;;;;;93.90;45.30;;;;;;;14.29;41.67;93163.31;5009682;28;20183;-82
2022/12/06 10:23:15;;;;;;;76.20;39.90;;;;;;;14.34;43.34;93157.88;4979485;28;20042;-83
2022/12/06 10:25:57;;;;;;;73.25;39.58;;;;;;;14.35;43.14;93145.78;5003406;28;20116;-84
2022/12/06 10:28:30;;;;;;;108.00;53.30;;;;;;;14.39;43.08;93148.25;4993008;28;20100;-85
2022/12/06 10:31:00;;;;;;;88.65;47.20;;;;;;;14.41;43.31;93145.81;4991025;28;20560;-85
2022/12/06 10:33:39;;;;;;;126.90;63.90;;;;;;;14.40;43.82;93134.19;4973522;28;20512;-86
2022/12/06 10:36:07;;;;;;;170.50;83.93;;;;;;;14.43;43.72;93139.88;4969239;28;20069;-86
2022/12/06 10:38:43;;;;;;;155.98;82.45;;;;;;;14.42;43.60;93141.13;4988233;28;20454;-86
2022/12/06 10:41:17;;;;;;;158.02;78.85;;;;;;;14.45;43.77;93138.16;4962681;28;20046;-85
2022/12/06 10:43:57;;;;;;;155.80;76.90;;;;;;;14.47;43.85;93145.84;4963215;28;20140;-85
2022/12/06 10:49:13;;;;;;;163.80;69.57;;;;;;;14.53;45.05;93138.41;4991010;28;20519;-86
2022/12/06 10:51:59;;;;;;;175.45;81.03;;;;;;;14.53;44.01;93139.16;4987818;28;20042;-86
2022/12/06 10:54:28;;;;;;;161.02;78.07;;;;;;;14.54;44.16;93137.94;5004790;28;20065;-85
2022/12/06 10:56:54;;;;;;;214.57;104.07;;;;;;;14.55;44.11;93139.41;5014761;28;20098;-85
2022/12/06 10:59:26;;;;;;;230.25;105.72;;;;;;;14.53;44.19;93136.44;5006378;28;20049;-85
2022/12/06 11:01:51;;;;;;;197.25;97.32;;;;;;;14.54;44.61;93129.03;5042517;28;20034;-84
2022/12/06 11:04:29;;;;;;;195.68;94.55;;;;;;;14.53;44.00;93125.56;4993768;28;20041;-84
2022/12/06 11:06:57;;;;;;;201.05;92.93;;;;;;;14.53;44.29;93131.00;5010488;28;20042;-85
2022/12/06 11:09:44;;;;;;;177.38;86.28;;;;;;;14.54;44.83;93129.03;5010806;28;20059;-84
2022/12/06 11:12:33;;;;;;;171.48;86.22;;;;;;;14.54;44.10;93129.03;5013562;28;20042;-88
2022/12/06 11:15:18;;;;;;;161.13;84.90;;;;;;;14.56;44.27;93121.84;4997150;28;20037;-85
2022/12/06 11:17:46;;;;;;;164.55;82.45;;;;;;;14.55;43.94;93130.50;5023999;28;20444;-85
2022/12/06 11:20:26;;;;;;;149.13;71.32;;;;;;;14.59;44.99;93136.47;5010170;28;20042;-84
2022/12/06 11:23:18;;;;;;;159.32;78.75;;;;;;;14.57;44.38;93130.75;5023931;28;20394;-85
2022/12/06 11:26:10;;;;;;;143.88;74.22;;;;;;;14.57;44.47;93128.78;5032939;28;20065;-86
2022/12/06 11:28:42;;;;;;;128.13;68.20;;;;;;;14.58;45.16;93115.94;5043938;28;20049;-84
2022/12/06 11:31:22;;;;;;;140.25;70.72;;;;;;;14.56;44.08;93127.31;5010830;28;20141;-84
2022/12/06 11:33:47;;;;;;;143.63;72.95;;;;;;;14.55;44.22;93119.63;5012099;28;20132;-84
2022/12/06 11:36:13;;;;;;;127.18;69.90;;;;;;;14.56;44.50;93126.56;5010684;28;20042;-84
2022/12/06 11:38:39;;;;;;;128.63;66.18;;;;;;;14.56;44.55;93112.97;5027483;28;20064;-84
2022/12/06 11:41:05;;;;;;;110.03;62.17;;;;;;;14.56;44.51;93124.56;5010766;28;20516;-84
2022/12/06 11:43:34;;;;;;;113.20;62.45;;;;;;;14.54;44.36;93110.72;4995688;28;20060;-84
2022/12/06 11:45:59;;;;;;;130.48;62.40;;;;;;;14.54;44.38;93121.59;5011597;28;20250;-84
2022/12/06 11:48:27;;;;;;;113.55;60.70;;;;;;;14.59;44.51;93112.72;5011009;28;20845;-84
2022/12/06 11:50:52;;;;;;;106.40;54.83;;;;;;;14.58;44.39;93121.38;5012246;28;20037;-85
2022/12/06 11:53:24;;;;;;;118.50;58.97;;;;;;;14.58;44.71;93119.38;5010339;28;20448;-84